createdAt,value
2023-04-02T00:00:11.160Z,91.03
2023-04-02T00:02:46.536Z,91.01
2023-04-02T00:05:18.230Z,90.64
2023-04-02T00:07:51.229Z,91.52
2023-04-02T00:10:39.349Z,91.46
2023-04-02T00:13:10.115Z,91.08
2023-04-02T00:15:39.448Z,90.92
2023-04-02T00:18:09.770Z,91.30
2023-04-02T00:20:42.069Z,91.35
2023-04-02T00:23:14.323Z,91.28
2023-04-02T00:25:46.316Z,90.99
2023-04-02T00:28:24.378Z,91.64
2023-04-02T00:30:58.587Z,91.27
2023-04-02T00:33:31.586Z,91.88
2023-04-02T00:35:59.667Z,91.49
2023-04-02T00:38:31.714Z,91.40
2023-04-02T00:41:03.893Z,91.70
2023-04-02T00:43:36.983Z,91.55
2023-04-02T00:46:14.364Z,91.75
2023-04-02T00:49:05.778Z,91.10
2023-04-02T00:51:38.734Z,89.78
2023-04-02T00:54:11.092Z,88.54
2023-04-02T00:56:51.945Z,88.19
2023-04-02T00:59:26.103Z,87.57
2023-04-02T01:02:01.532Z,88.09
2023-04-02T01:04:34.888Z,88.36
2023-04-02T01:07:08.917Z,88.15
2023-04-02T01:09:44.969Z,88.16
2023-04-02T01:13:13.830Z,88.45
2023-04-02T01:15:48.896Z,88.05
2023-04-02T01:18:39.879Z,88.12
2023-04-02T01:21:25.574Z,88.13
2023-04-02T01:24:06.171Z,88.19
2023-04-02T01:27:12.184Z,87.62
2023-04-02T01:29:45.531Z,87.64
2023-04-02T01:32:17.090Z,87.64
2023-04-02T01:34:47.839Z,87.30
2023-04-02T01:37:39.240Z,87.20
2023-04-02T01:40:28.590Z,87.37
2023-04-02T01:43:13.351Z,87.36
2023-04-02T01:45:41.275Z,87.32
2023-04-02T01:48:30.901Z,86.90
2023-04-02T01:50:59.944Z,86.78
2023-04-02T01:53:31.018Z,86.63
2023-04-02T01:56:01.456Z,86.83
2023-04-02T01:58:32.149Z,86.16
2023-04-02T02:01:12.803Z,86.59
2023-04-02T02:03:42.608Z,86.46
2023-04-02T02:06:18.386Z,86.53
2023-04-02T02:08:59.994Z,86.23
2023-04-02T02:11:30.131Z,86.01
2023-04-02T02:14:05.423Z,86.11
2023-04-02T02:16:42.001Z,86.07
2023-04-02T02:19:22.538Z,86.26
2023-04-02T02:21:54.065Z,86.28
2023-04-02T02:24:25.789Z,86.44
2023-04-02T02:27:26.074Z,86.10
2023-04-02T02:29:56.865Z,85.58
2023-04-02T02:32:29.646Z,85.67
2023-04-02T02:35:24.127Z,85.48
2023-04-02T02:38:02.027Z,85.29
2023-04-02T02:40:43.247Z,84.91
2023-04-02T02:43:13.404Z,84.98
2023-04-02T02:45:43.149Z,84.84
2023-04-02T02:48:15.563Z,84.88
2023-04-02T02:50:44.027Z,85.41
2023-04-02T02:53:23.025Z,84.83
2023-04-02T02:55:55.757Z,84.72
2023-04-02T02:58:31.640Z,85.25
2023-04-02T03:00:59.783Z,85.53
2023-04-02T03:03:30.294Z,85.92
2023-04-02T03:06:03.039Z,85.91
2023-04-02T03:08:42.463Z,86.38
2023-04-02T03:11:16.768Z,86.42
2023-04-02T03:13:49.032Z,86.51
2023-04-02T03:16:39.162Z,86.68
2023-04-02T03:19:28.413Z,87.20
2023-04-02T03:22:03.212Z,87.96
2023-04-02T03:24:52.451Z,87.68
2023-04-02T03:27:28.171Z,87.99
2023-04-02T03:29:58.554Z,88.59
2023-04-02T03:32:31.421Z,88.77
2023-04-02T03:35:03.144Z,88.71
2023-04-02T03:37:54.798Z,88.92
2023-04-02T03:40:28.895Z,89.40
2023-04-02T03:43:27.323Z,90.08
2023-04-02T03:46:21.100Z,91.27
2023-04-02T03:49:26.636Z,91.65
2023-04-02T03:52:06.817Z,91.57
2023-04-02T03:54:34.208Z,92.11
2023-04-02T03:57:01.733Z,91.39
2023-04-02T03:59:48.806Z,91.70
2023-04-02T04:02:41.336Z,91.74
2023-04-02T04:05:39.256Z,91.52
2023-04-02T04:08:17.205Z,92.02
2023-04-02T04:10:44.963Z,92.19
2023-04-02T04:13:30.981Z,91.76
2023-04-02T04:16:05.246Z,91.98
2023-04-02T04:19:03.387Z,92.04
2023-04-02T04:21:31.467Z,91.76
2023-04-02T04:24:04.194Z,91.82
2023-04-02T04:27:04.231Z,91.59
2023-04-02T04:30:10.520Z,91.61
2023-04-02T04:32:50.420Z,91.53
2023-04-02T04:35:37.648Z,91.98
2023-04-02T04:38:27.663Z,91.98
2023-04-02T04:41:14.201Z,92.04
2023-04-02T04:44:00.757Z,92.35
2023-04-02T04:46:31.655Z,93.00
2023-04-02T04:49:18.017Z,93.31
2023-04-02T04:51:52.160Z,93.57
2023-04-02T04:54:20.342Z,93.14
2023-04-02T04:56:54.051Z,93.75
2023-04-02T04:59:27.308Z,93.60
2023-04-02T05:02:19.841Z,93.53
2023-04-02T05:04:51.973Z,93.42
2023-04-02T05:07:26.549Z,93.47
2023-04-02T05:10:12.909Z,93.19
2023-04-02T05:12:48.543Z,93.39
2023-04-02T05:15:24.845Z,93.63
2023-04-02T05:18:30.892Z,93.42
2023-04-02T05:21:08.653Z,93.24
2023-04-02T05:23:46.475Z,92.69
2023-04-02T05:26:19.354Z,92.75
2023-04-02T05:29:10.376Z,92.78
2023-04-02T05:31:54.619Z,92.04
2023-04-02T05:34:29.715Z,91.18
2023-04-02T05:36:58.500Z,90.37
2023-04-02T05:39:27.481Z,89.76
2023-04-02T05:42:03.515Z,89.51
2023-04-02T05:44:34.216Z,88.90
2023-04-02T05:47:12.390Z,88.95
2023-04-02T05:49:48.243Z,88.61
2023-04-02T05:52:21.282Z,87.76
2023-04-02T05:54:56.788Z,86.81
2023-04-02T06:00:17.109Z,85.34
2023-04-02T06:03:07.443Z,85.36
2023-04-02T06:05:40.063Z,84.57
2023-04-02T06:08:16.378Z,83.47
2023-04-02T06:10:51.025Z,82.71
2023-04-02T06:13:19.058Z,82.93
2023-04-02T06:15:47.935Z,82.19
2023-04-02T06:18:20.057Z,82.73
2023-04-02T06:20:47.772Z,81.27
2023-04-02T06:23:31.294Z,81.46
2023-04-02T06:26:03.582Z,81.78
2023-04-02T06:28:38.613Z,81.17
2023-04-02T06:31:12.311Z,80.93
2023-04-02T06:33:39.664Z,81.29
2023-04-02T06:36:09.348Z,79.61
2023-04-02T06:38:37.897Z,78.68
2023-04-02T06:41:20.756Z,78.71
2023-04-02T06:43:54.701Z,78.64
2023-04-02T06:46:36.370Z,78.59
2023-04-02T06:49:28.325Z,78.67
2023-04-02T06:51:58.441Z,76.38
2023-04-02T06:54:26.074Z,75.80
2023-04-02T06:56:56.469Z,75.73
2023-04-02T06:59:24.684Z,76.49
2023-04-02T07:02:00.999Z,76.12
2023-04-02T07:04:29.023Z,75.78
2023-04-02T07:06:56.878Z,72.98
2023-04-02T07:09:24.187Z,73.83
2023-04-02T07:11:51.649Z,74.05
2023-04-02T07:14:18.991Z,73.45
2023-04-02T07:16:46.381Z,72.98
2023-04-02T07:19:22.212Z,71.15
2023-04-02T07:21:50.166Z,71.66
2023-04-02T07:24:18.073Z,69.79
2023-04-02T07:26:48.309Z,68.34
2023-04-02T07:29:17.542Z,67.39
2023-04-02T07:31:45.142Z,67.34
2023-04-02T07:34:12.734Z,67.34
2023-04-02T07:36:39.943Z,68.42
2023-04-02T07:39:07.452Z,66.32
2023-04-02T07:41:53.739Z,64.60
2023-04-02T07:44:21.407Z,64.16
2023-04-02T07:46:48.933Z,65.00
2023-04-02T07:49:16.772Z,65.33
2023-04-02T07:51:44.489Z,66.48
2023-04-02T07:54:13.097Z,66.79
2023-04-02T07:56:40.196Z,66.56
2023-04-02T07:59:08.001Z,66.27
2023-04-02T08:01:35.618Z,64.51
2023-04-02T08:04:04.984Z,65.12
2023-04-02T08:06:32.197Z,64.35
2023-04-02T08:08:59.322Z,61.86
2023-04-02T08:11:28.091Z,59.37
2023-04-02T08:13:56.334Z,59.53
2023-04-02T08:16:25.334Z,59.41
2023-04-02T08:18:52.673Z,59.74
2023-04-02T08:21:20.252Z,61.66
2023-04-02T08:23:47.860Z,60.97
2023-04-02T08:26:18.932Z,59.44
2023-04-02T08:28:46.723Z,57.89
2023-04-02T08:31:17.467Z,56.07
2023-04-02T08:33:44.879Z,52.86
2023-04-02T08:36:19.238Z,52.88
2023-04-02T08:38:46.936Z,52.81
2023-04-02T08:41:24.671Z,52.39
2023-04-02T08:44:08.390Z,51.15
2023-04-02T08:46:55.745Z,51.45
2023-04-02T08:49:32.535Z,50.86
2023-04-02T08:52:00.990Z,48.91
2023-04-02T08:54:38.105Z,48.96
2023-04-02T08:57:20.826Z,49.98
2023-04-02T08:59:51.128Z,48.95
2023-04-02T09:02:38.353Z,49.76
2023-04-02T09:05:08.391Z,50.27
2023-04-02T09:07:36.298Z,52.24
2023-04-02T09:10:05.103Z,49.88
2023-04-02T09:12:33.112Z,49.64
2023-04-02T09:15:29.655Z,49.03
2023-04-02T09:18:06.893Z,49.56
2023-04-02T09:20:34.217Z,50.98
2023-04-02T09:23:01.388Z,50.49
2023-04-02T09:25:34.371Z,51.32
2023-04-02T09:28:04.267Z,51.79
2023-04-02T09:30:59.580Z,51.36
2023-04-02T09:33:48.404Z,51.09
2023-04-02T09:36:38.990Z,51.08
2023-04-02T09:39:18.279Z,51.93
2023-04-02T09:41:52.857Z,50.54
2023-04-02T09:44:32.861Z,49.35
2023-04-02T09:47:04.239Z,50.52
2023-04-02T09:49:37.079Z,50.16
2023-04-02T09:52:09.683Z,49.05
2023-04-02T09:54:43.626Z,48.92
2023-04-02T09:57:24.834Z,48.46
2023-04-02T10:00:41.547Z,48.49
2023-04-02T10:03:27.618Z,50.29
2023-04-02T10:06:15.500Z,49.51
2023-04-02T10:08:45.193Z,48.64
2023-04-02T10:11:18.974Z,46.75
2023-04-02T10:13:57.244Z,45.55
2023-04-02T10:16:33.639Z,46.59
2023-04-02T10:19:04.394Z,46.77
2023-04-02T10:21:35.944Z,45.68
2023-04-02T10:24:10.629Z,44.16
2023-04-02T10:26:42.177Z,43.53
2023-04-02T10:29:31.646Z,43.04
2023-04-02T10:32:06.288Z,44.66
2023-04-02T10:35:06.068Z,43.62
2023-04-02T10:37:36.353Z,44.28
2023-04-02T10:40:14.381Z,43.50
2023-04-02T10:43:13.211Z,40.44
2023-04-02T10:45:46.135Z,38.94
2023-04-02T10:48:31.304Z,39.67
2023-04-02T10:51:12.113Z,38.32
2023-04-02T10:53:47.628Z,36.52
2023-04-02T10:56:15.521Z,36.16
2023-04-02T10:59:10.999Z,35.31
2023-04-02T11:01:41.456Z,33.84
2023-04-02T11:04:22.726Z,35.71
2023-04-02T11:07:13.236Z,34.15
2023-04-02T11:09:45.926Z,33.63
2023-04-02T11:12:46.587Z,32.74
2023-04-02T11:15:19.933Z,31.71
2023-04-02T11:17:48.136Z,33.09
2023-04-02T11:20:53.155Z,33.32
2023-04-02T11:23:21.804Z,36.12
2023-04-02T11:25:49.184Z,37.10
2023-04-02T11:28:32.695Z,36.19
2023-04-02T11:31:00.322Z,39.56
2023-04-02T11:33:39.964Z,39.33
2023-04-02T11:36:47.348Z,36.54
2023-04-02T11:39:46.353Z,36.99
2023-04-02T11:42:19.396Z,37.50
2023-04-02T11:44:46.752Z,39.50
2023-04-02T11:47:22.517Z,42.09
2023-04-02T11:50:16.465Z,42.72
2023-04-02T11:52:46.442Z,44.07
2023-04-02T11:55:48.340Z,37.77
2023-04-02T11:58:42.848Z,37.83
2023-04-02T12:01:34.169Z,39.26
2023-04-02T12:04:16.633Z,37.10
2023-04-02T12:06:47.308Z,37.48
2023-04-02T12:09:20.126Z,35.53
2023-04-02T12:11:49.844Z,34.41
2023-04-02T12:14:43.364Z,33.81
2023-04-02T12:17:40.137Z,33.70
2023-04-02T12:20:09.140Z,33.76
2023-04-02T12:22:47.981Z,32.93
2023-04-02T12:25:21.795Z,32.38
2023-04-02T12:28:02.865Z,31.08
2023-04-02T12:30:30.063Z,32.66
2023-04-02T12:32:57.861Z,32.72
2023-04-02T12:35:28.150Z,31.96
2023-04-02T12:37:55.886Z,33.20
2023-04-02T12:40:23.977Z,31.12
2023-04-02T12:42:51.627Z,32.35
2023-04-02T12:45:29.294Z,33.22
2023-04-02T12:47:58.585Z,33.48
2023-04-02T12:50:26.336Z,33.20
2023-04-02T12:52:59.337Z,31.83
2023-04-02T12:55:28.036Z,34.00
2023-04-02T12:57:59.958Z,33.99
2023-04-02T13:00:31.693Z,32.86
2023-04-02T13:03:06.923Z,34.14
2023-04-02T13:05:57.393Z,33.66
2023-04-02T13:08:40.554Z,32.69
2023-04-02T13:11:08.172Z,33.05
2023-04-02T13:13:42.157Z,33.21
2023-04-02T13:16:15.833Z,33.62
2023-04-02T13:18:46.696Z,34.62
2023-04-02T13:21:14.814Z,34.43
2023-04-02T13:23:41.767Z,34.58
2023-04-02T13:26:09.239Z,34.62
2023-04-02T13:28:37.028Z,34.01
2023-04-02T13:31:04.780Z,34.73
2023-04-02T13:33:34.631Z,33.73
2023-04-02T13:36:01.952Z,32.64
2023-04-02T13:38:29.915Z,31.17
2023-04-02T13:40:57.831Z,31.21
2023-04-02T13:43:25.211Z,31.99
2023-04-02T13:45:56.780Z,31.79
2023-04-02T13:48:28.346Z,31.54
2023-04-02T13:50:56.024Z,30.98
2023-04-02T13:53:32.376Z,31.79
2023-04-02T13:55:59.435Z,31.44
2023-04-02T13:58:27.602Z,32.95
2023-04-02T14:00:57.039Z,31.59
2023-04-02T14:03:25.068Z,31.58
2023-04-02T14:06:17.493Z,33.17
2023-04-02T14:09:02.886Z,33.84
2023-04-02T14:11:54.152Z,34.99
2023-04-02T14:15:06.919Z,40.08
2023-04-02T14:17:51.996Z,41.90
2023-04-02T14:20:28.731Z,39.51
2023-04-02T14:23:43.948Z,39.35
2023-04-02T14:26:46.005Z,39.84
2023-04-02T14:29:37.438Z,38.54
2023-04-02T14:32:21.329Z,44.09
2023-04-02T14:35:14.799Z,48.14
2023-04-02T14:38:05.085Z,49.91
2023-04-02T14:41:12.834Z,54.28
2023-04-02T14:43:53.877Z,55.16
2023-04-02T14:46:26.054Z,57.36
2023-04-02T14:49:02.330Z,60.28
2023-04-02T14:51:38.031Z,60.96
2023-04-02T14:54:27.296Z,64.09
2023-04-02T14:57:00.700Z,67.00
2023-04-02T14:59:34.409Z,68.29
2023-04-02T15:02:09.315Z,67.92
2023-04-02T15:04:44.275Z,71.92
2023-04-02T15:07:20.446Z,72.27
2023-04-02T15:09:55.795Z,76.44
2023-04-02T15:12:29.372Z,76.90
2023-04-02T15:15:33.157Z,78.44
2023-04-02T15:18:11.216Z,75.55
2023-04-02T15:21:07.285Z,73.58
2023-04-02T15:23:52.430Z,74.96
2023-04-02T15:26:30.945Z,73.65
2023-04-02T15:29:29.566Z,71.80
2023-04-02T15:32:12.447Z,74.06
2023-04-02T15:34:49.625Z,73.75
2023-04-02T15:37:37.994Z,70.89
2023-04-02T15:40:05.841Z,73.67
2023-04-02T15:42:44.479Z,70.40
2023-04-02T15:45:32.458Z,67.01
2023-04-02T15:48:37.372Z,63.10
2023-04-02T15:51:41.733Z,62.38
2023-04-02T15:54:30.839Z,64.60
2023-04-02T15:57:21.294Z,65.90
2023-04-02T16:00:07.351Z,62.52
2023-04-02T16:02:41.350Z,66.42
2023-04-02T16:05:34.360Z,68.29
2023-04-02T16:08:22.890Z,66.05
2023-04-02T16:10:51.168Z,66.48
2023-04-02T16:13:32.948Z,68.34
2023-04-02T16:16:33.060Z,72.95
2023-04-02T16:19:15.982Z,72.01
2023-04-02T16:22:00.147Z,71.31
2023-04-02T16:24:31.035Z,71.40
2023-04-02T16:27:20.172Z,70.24
2023-04-02T16:30:18.077Z,73.43
2023-04-02T16:32:53.047Z,72.80
2023-04-02T16:35:43.197Z,72.26
2023-04-02T16:38:42.096Z,72.33
2023-04-02T16:41:14.532Z,72.10
2023-04-02T16:44:15.862Z,71.82
2023-04-02T16:47:14.133Z,71.92
2023-04-02T16:50:00.907Z,72.55
2023-04-02T16:52:44.651Z,76.62
2023-04-02T16:55:20.791Z,76.18
2023-04-02T16:58:01.847Z,78.16
2023-04-02T17:00:59.113Z,79.43
2023-04-02T17:04:08.980Z,80.45
2023-04-02T17:06:51.135Z,80.35
2023-04-02T17:09:30.654Z,81.54
2023-04-02T17:12:12.528Z,84.44
2023-04-02T17:14:51.287Z,83.80
2023-04-02T17:17:21.261Z,84.25
2023-04-02T17:19:52.921Z,84.46
2023-04-02T17:22:23.535Z,85.69
2023-04-02T17:24:57.994Z,85.55
2023-04-02T17:27:28.206Z,85.58
2023-04-02T17:30:03.841Z,86.23
2023-04-02T17:32:33.790Z,89.12
2023-04-02T17:35:18.855Z,89.33
2023-04-02T17:37:58.083Z,88.95
2023-04-02T17:41:06.063Z,86.43
2023-04-02T17:43:45.875Z,83.46
2023-04-02T17:46:48.720Z,83.88
2023-04-02T17:49:40.392Z,82.91
2023-04-02T17:52:38.427Z,83.65
2023-04-02T17:55:28.268Z,82.66
2023-04-02T17:58:12.053Z,84.52
2023-04-02T18:01:01.084Z,83.30
2023-04-02T18:03:50.628Z,83.69
2023-04-02T18:06:44.069Z,80.84
2023-04-02T18:09:27.763Z,78.73
2023-04-02T18:12:18.928Z,78.79
2023-04-02T18:15:03.530Z,77.95
2023-04-02T18:17:52.741Z,77.66
2023-04-02T18:20:41.225Z,77.20
2023-04-02T18:23:20.492Z,76.52
2023-04-02T18:26:03.643Z,75.78
2023-04-02T18:28:41.786Z,74.94
2023-04-02T18:31:36.288Z,75.46
2023-04-02T18:34:24.546Z,74.65
2023-04-02T18:36:59.715Z,74.11
2023-04-02T18:40:13.186Z,73.29
2023-04-02T18:42:47.127Z,74.55
2023-04-02T18:45:49.761Z,74.50
2023-04-02T18:48:29.647Z,74.13
2023-04-02T18:51:01.231Z,74.12
2023-04-02T18:53:33.754Z,73.49
2023-04-02T18:56:11.977Z,71.32
2023-04-02T18:58:45.497Z,71.85
2023-04-02T19:01:19.259Z,72.44
2023-04-02T19:04:02.277Z,71.42
2023-04-02T19:06:44.835Z,71.31
2023-04-02T19:09:26.467Z,71.72
2023-04-02T19:11:55.259Z,71.12
2023-04-02T19:14:24.087Z,69.82
2023-04-02T19:17:11.040Z,69.91
2023-04-02T19:19:51.925Z,71.06
2023-04-02T19:22:33.134Z,70.82
2023-04-02T19:25:26.738Z,71.74
2023-04-02T19:28:06.669Z,72.10
2023-04-02T19:30:40.045Z,72.39
2023-04-02T19:33:22.166Z,71.15
2023-04-02T19:36:16.329Z,70.96
2023-04-02T19:38:49.459Z,71.80
2023-04-02T19:41:32.753Z,71.52
2023-04-02T19:44:03.085Z,71.79
2023-04-02T19:46:32.076Z,71.70
2023-04-02T19:49:28.957Z,71.22
2023-04-02T19:51:57.701Z,71.58
2023-04-02T19:54:26.030Z,71.04
2023-04-02T19:56:54.197Z,70.79
2023-04-02T19:59:22.718Z,69.73
2023-04-02T20:01:51.253Z,71.52
2023-04-02T20:04:20.536Z,71.26
2023-04-02T20:06:48.648Z,71.94
2023-04-02T20:09:16.976Z,71.53
2023-04-02T20:11:46.223Z,70.94
2023-04-02T20:14:14.334Z,71.20
2023-04-02T20:16:44.501Z,71.10
2023-04-02T20:19:13.554Z,71.41
2023-04-02T20:21:41.459Z,73.24
2023-04-02T20:24:09.412Z,72.38
2023-04-02T20:26:38.241Z,73.24
2023-04-02T20:29:05.958Z,73.49
2023-04-02T20:31:34.740Z,73.16
2023-04-02T20:34:05.440Z,73.85
2023-04-02T20:36:34.117Z,74.06
2023-04-02T20:39:01.445Z,73.99
2023-04-02T20:41:30.075Z,73.37
2023-04-02T20:43:57.812Z,74.85
2023-04-02T20:46:25.787Z,75.23
2023-04-02T20:48:52.959Z,75.20
2023-04-02T20:51:20.017Z,74.99
2023-04-02T20:53:48.022Z,77.42
2023-04-02T20:56:17.085Z,77.46
2023-04-02T20:58:44.824Z,77.73
2023-04-02T21:01:20.767Z,77.09
2023-04-02T21:03:48.972Z,76.92
2023-04-02T21:06:17.153Z,77.09
2023-04-02T21:08:44.762Z,76.25
2023-04-02T21:11:12.278Z,76.38
2023-04-02T21:13:43.875Z,75.18
2023-04-02T21:16:22.412Z,74.49
2023-04-02T21:18:52.797Z,74.36
2023-04-02T21:21:21.179Z,74.34
2023-04-02T21:23:54.007Z,75.20
2023-04-02T21:26:21.043Z,73.64
2023-04-02T21:28:47.965Z,73.18
2023-04-02T21:31:18.628Z,73.15
2023-04-02T21:33:48.088Z,72.91
2023-04-02T21:36:18.077Z,72.15
2023-04-02T21:38:47.716Z,71.82
2023-04-02T21:41:38.615Z,71.97
2023-04-02T21:44:07.047Z,71.20
2023-04-02T21:46:39.673Z,70.63
2023-04-02T21:49:08.494Z,71.94
2023-04-02T21:51:37.655Z,71.74
2023-04-02T21:54:05.052Z,72.11
2023-04-02T21:56:35.690Z,71.90
2023-04-02T21:59:04.924Z,72.04
2023-04-02T22:01:36.022Z,72.22
2023-04-02T22:04:05.765Z,71.78
2023-04-02T22:06:37.659Z,71.96
2023-04-02T22:09:09.500Z,72.79
2023-04-02T22:11:40.756Z,72.23
2023-04-02T22:14:07.775Z,71.77
2023-04-02T22:16:35.609Z,72.72
2023-04-02T22:19:05.670Z,71.65
2023-04-02T22:21:33.587Z,71.94
2023-04-02T22:24:05.005Z,70.53
2023-04-02T22:26:33.329Z,71.19
2023-04-02T22:29:01.562Z,71.49
2023-04-02T22:31:31.228Z,71.69
2023-04-02T22:33:59.841Z,71.85
2023-04-02T22:36:28.293Z,71.95
2023-04-02T22:38:55.462Z,71.57
2023-04-02T22:41:29.593Z,71.89
2023-04-02T22:43:57.079Z,71.35
2023-04-02T22:46:26.817Z,72.03
2023-04-02T22:48:55.959Z,71.86
2023-04-02T22:51:24.864Z,71.87
2023-04-02T22:53:54.287Z,71.46
2023-04-02T22:56:24.281Z,73.10
2023-04-02T22:58:51.243Z,71.73
2023-04-02T23:01:22.244Z,72.04
2023-04-02T23:03:50.117Z,71.62
2023-04-02T23:06:18.437Z,71.94
2023-04-02T23:08:46.295Z,71.18
2023-04-02T23:11:16.651Z,71.40
2023-04-02T23:13:45.043Z,71.63
2023-04-02T23:16:13.924Z,71.32
2023-04-02T23:18:42.818Z,71.42
2023-04-02T23:21:10.160Z,71.97
2023-04-02T23:23:37.558Z,70.80
2023-04-02T23:26:11.487Z,72.12
2023-04-02T23:28:40.497Z,71.58
2023-04-02T23:31:11.638Z,71.98
2023-04-02T23:33:38.882Z,72.49
2023-04-02T23:36:16.802Z,71.28
2023-04-02T23:38:44.455Z,71.62
2023-04-02T23:41:14.754Z,73.64
2023-04-02T23:43:42.754Z,72.94
2023-04-02T23:46:10.136Z,72.12
2023-04-02T23:48:37.934Z,72.00
2023-04-02T23:51:05.988Z,72.17
2023-04-02T23:53:34.684Z,72.32
2023-04-02T23:56:01.819Z,71.64
2023-04-02T23:58:29.689Z,71.77
